sensor_id;sensor_type;location;lat;lon;timestamp;pressure;altitude;pressure_sealevel;temperature;humidity
49835;BME280;35729;52.090;13.162;2023-03-15T00:01:11;100283.75;;;-0.61;98.05
49835;BME280;35729;52.090;13.162;2023-03-15T00:03:43;100288.03;;;-0.63;98.24
49835;BME280;35729;52.090;13.162;2023-03-15T00:06:12;100294.88;;;-0.63;96.66
49835;BME280;35729;52.090;13.162;2023-03-15T00:08:40;100293.16;;;-0.64;96.60
49835;BME280;35729;52.090;13.162;2023-03-15T00:11:12;100297.47;;;-0.63;97.13
49835;BME280;35729;52.090;13.162;2023-03-15T00:13:41;100301.78;;;-0.62;96.94
49835;BME280;35729;52.090;13.162;2023-03-15T00:16:12;100306.09;;;-0.61;97.37
49835;BME280;35729;52.090;13.162;2023-03-15T00:18:41;100310.44;;;-0.59;97.33
49835;BME280;35729;52.090;13.162;2023-03-15T00:21:11;100318.19;;;-0.57;96.73
49835;BME280;35729;52.090;13.162;2023-03-15T00:23:39;100319.06;;;-0.57;96.05
49835;BME280;35729;52.090;13.162;2023-03-15T00:26:08;100325.94;;;-0.56;96.34
49835;BME280;35729;52.090;13.162;2023-03-15T00:28:37;100321.66;;;-0.55;95.37
49835;BME280;35729;52.090;13.162;2023-03-15T00:31:22;100329.41;;;-0.54;94.95
49835;BME280;35729;52.090;13.162;2023-03-15T00:33:52;100330.31;;;-0.52;94.34
49835;BME280;35729;52.090;13.162;2023-03-15T00:36:21;100337.19;;;-0.51;94.94
49835;BME280;35729;52.090;13.162;2023-03-15T00:38:51;100336.34;;;-0.50;95.27
49835;BME280;35729;52.090;13.162;2023-03-15T00:41:20;100335.53;;;-0.47;94.95
49835;BME280;35729;52.090;13.162;2023-03-15T00:43:50;100315.63;;;-0.56;94.81
49835;BME280;35729;52.090;13.162;2023-03-15T00:46:21;100337.34;;;-0.43;94.15
49835;BME280;35729;52.090;13.162;2023-03-15T00:48:50;100328.69;;;-0.46;94.62
49835;BME280;35729;52.090;13.162;2023-03-15T00:51:21;100340.81;;;-0.39;95.59
49835;BME280;35729;52.090;13.162;2023-03-15T00:53:51;100342.53;;;-0.40;92.38
49835;BME280;35729;52.090;13.162;2023-03-15T00:56:21;100352.84;;;-0.38;94.11
49835;BME280;35729;52.090;13.162;2023-03-15T00:58:50;100350.34;;;-0.37;93.73
49835;BME280;35729;52.090;13.162;2023-03-15T01:01:24;100353.69;;;-0.39;95.52
49835;BME280;35729;52.090;13.162;2023-03-15T01:03:53;100358.84;;;-0.39;94.86
49835;BME280;35729;52.090;13.162;2023-03-15T01:06:23;100363.22;;;-0.37;94.46
49835;BME280;35729;52.090;13.162;2023-03-15T01:08:52;100341.47;;;-0.53;95.26
49835;BME280;35729;52.090;13.162;2023-03-15T01:11:23;100360.56;;;-0.41;96.18
49835;BME280;35729;52.090;13.162;2023-03-15T01:13:53;100368.28;;;-0.43;96.18
49835;BME280;35729;52.090;13.162;2023-03-15T01:16:25;100368.28;;;-0.43;97.54
49835;BME280;35729;52.090;13.162;2023-03-15T01:18:53;100380.25;;;-0.45;97.36
49835;BME280;35729;52.090;13.162;2023-03-15T01:21:22;100376.75;;;-0.48;96.90
49835;BME280;35729;52.090;13.162;2023-03-15T01:23:52;100379.28;;;-0.52;96.62
49835;BME280;35729;52.090;13.162;2023-03-15T01:26:21;100366.16;;;-0.66;95.91
49835;BME280;35729;52.090;13.162;2023-03-15T01:28:50;100382.59;;;-0.59;96.69
49835;BME280;35729;52.090;13.162;2023-03-15T01:31:21;100379.97;;;-0.62;97.58
49835;BME280;35729;52.090;13.162;2023-03-15T01:33:52;100385.91;;;-0.64;96.91
49835;BME280;35729;52.090;13.162;2023-03-15T01:36:21;100391.03;;;-0.66;96.52
49835;BME280;35729;52.090;13.162;2023-03-15T01:38:50;100397.00;;;-0.69;97.50
49835;BME280;35729;52.090;13.162;2023-03-15T01:41:19;100385.72;;;-0.75;96.76
49835;BME280;35729;52.090;13.162;2023-03-15T01:43:49;100381.25;;;-0.86;96.27
49835;BME280;35729;52.090;13.162;2023-03-15T01:46:21;100400.28;;;-0.77;97.52
49835;BME280;35729;52.090;13.162;2023-03-15T01:48:56;100405.41;;;-0.79;97.18
49835;BME280;35729;52.090;13.162;2023-03-15T01:51:31;100407.94;;;-0.82;97.84
49835;BME280;35729;52.090;13.162;2023-03-15T01:54:04;100406.19;;;-0.83;99.05
49835;BME280;35729;52.090;13.162;2023-03-15T01:56:35;100413.91;;;-0.85;98.74
49835;BME280;35729;52.090;13.162;2023-03-15T01:59:10;100401.78;;;-0.89;98.37
49835;BME280;35729;52.090;13.162;2023-03-15T02:01:42;100410.34;;;-0.90;97.87
49835;BME280;35729;52.090;13.162;2023-03-15T02:04:17;100413.72;;;-0.92;97.58
49835;BME280;35729;52.090;13.162;2023-03-15T02:06:50;100416.28;;;-0.94;97.42
49835;BME280;35729;52.090;13.162;2023-03-15T02:09:26;100418.81;;;-0.95;97.54
49835;BME280;35729;52.090;13.162;2023-03-15T02:11:57;100407.59;;;-0.98;98.45
49835;BME280;35729;52.090;13.162;2023-03-15T02:14:26;100411.88;;;-1.00;98.04
49835;BME280;35729;52.090;13.162;2023-03-15T02:17:02;100417.84;;;-1.02;98.34
49835;BME280;35729;52.090;13.162;2023-03-15T02:19:41;100418.66;;;-1.03;98.04
49835;BME280;35729;52.090;13.162;2023-03-15T02:22:24;100410.88;;;-1.06;97.94
49835;BME280;35729;52.090;13.162;2023-03-15T02:25:02;100413.41;;;-1.08;98.38
49835;BME280;35729;52.090;13.162;2023-03-15T02:27:38;100420.28;;;-1.08;98.16
49835;BME280;35729;52.090;13.162;2023-03-15T02:30:10;100420.31;;;-1.07;99.17
49835;BME280;35729;52.090;13.162;2023-03-15T02:32:39;100427.19;;;-1.07;99.12
49835;BME280;35729;52.090;13.162;2023-03-15T02:35:08;100420.28;;;-1.08;99.02
49835;BME280;35729;52.090;13.162;2023-03-15T02:37:37;100422.88;;;-1.07;99.15
49835;BME280;35729;52.090;13.162;2023-03-15T02:40:17;100434.91;;;-1.07;98.92
49835;BME280;35729;52.090;13.162;2023-03-15T02:42:53;100435.72;;;-1.10;98.63
49835;BME280;35729;52.090;13.162;2023-03-15T02:45:23;100431.41;;;-1.09;98.93
49835;BME280;35729;52.090;13.162;2023-03-15T02:47:53;100435.72;;;-1.10;99.30
49835;BME280;35729;52.090;13.162;2023-03-15T02:50:22;100442.53;;;-1.10;99.19
49835;BME280;35729;52.090;13.162;2023-03-15T02:52:50;100445.94;;;-1.11;99.39
49835;BME280;35729;52.090;13.162;2023-03-15T02:55:19;100449.38;;;-1.12;100.00
49835;BME280;35729;52.090;13.162;2023-03-15T02:57:50;100451.06;;;-1.13;100.00
49835;BME280;35729;52.090;13.162;2023-03-15T03:00:19;100454.47;;;-1.16;99.27
49835;BME280;35729;52.090;13.162;2023-03-15T03:02:48;100462.19;;;-1.16;99.08
49835;BME280;35729;52.090;13.162;2023-03-15T03:05:17;100462.16;;;-1.17;99.68
49835;BME280;35729;52.090;13.162;2023-03-15T03:07:46;100471.56;;;-1.18;99.70
49835;BME280;35729;52.090;13.162;2023-03-15T03:10:17;100465.53;;;-1.20;99.43
49835;BME280;35729;52.090;13.162;2023-03-15T03:12:45;100473.25;;;-1.20;99.71
49835;BME280;35729;52.090;13.162;2023-03-15T03:15:20;100474.94;;;-1.20;99.89
49835;BME280;35729;52.090;13.162;2023-03-15T03:17:49;100476.66;;;-1.21;99.97
49835;BME280;35729;52.090;13.162;2023-03-15T03:20:19;100474.09;;;-1.21;100.00
49835;BME280;35729;52.090;13.162;2023-03-15T03:22:47;100480.06;;;-1.22;100.00
49835;BME280;35729;52.090;13.162;2023-03-15T03:25:16;100480.84;;;-1.26;100.00
49835;BME280;35729;52.090;13.162;2023-03-15T03:27:44;100488.63;;;-1.23;100.00
49835;BME280;35729;52.090;13.162;2023-03-15T03:30:13;100489.47;;;-1.24;100.00
49835;BME280;35729;52.090;13.162;2023-03-15T03:32:44;100501.47;;;-1.24;100.00
49835;BME280;35729;52.090;13.162;2023-03-15T03:35:13;100502.34;;;-1.24;100.00
49835;BME280;35729;52.090;13.162;2023-03-15T03:37:41;100494.53;;;-1.27;100.00
49835;BME280;35729;52.090;13.162;2023-03-15T03:40:11;100497.13;;;-1.25;100.00
49835;BME280;35729;52.090;13.162;2023-03-15T03:42:40;100514.34;;;-1.24;100.00
49835;BME280;35729;52.090;13.162;2023-03-15T03:45:09;100507.44;;;-1.25;99.95
49835;BME280;35729;52.090;13.162;2023-03-15T03:47:38;100509.19;;;-1.24;99.68
49835;BME280;35729;52.090;13.162;2023-03-15T03:50:10;100504.94;;;-1.24;99.87
49835;BME280;35729;52.090;13.162;2023-03-15T03:52:38;100509.22;;;-1.23;99.45
49835;BME280;35729;52.090;13.162;2023-03-15T03:55:08;100515.28;;;-1.21;98.72
49835;BME280;35729;52.090;13.162;2023-03-15T03:57:38;100520.44;;;-1.19;98.68
49835;BME280;35729;52.090;13.162;2023-03-15T04:00:08;100519.63;;;-1.18;98.26
49835;BME280;35729;52.090;13.162;2023-03-15T04:02:38;100523.13;;;-1.16;98.89
49835;BME280;35729;52.090;13.162;2023-03-15T04:05:10;100531.72;;;-1.14;98.51
49835;BME280;35729;52.090;13.162;2023-03-15T04:07:38;100538.59;;;-1.15;98.73
49835;BME280;35729;52.090;13.162;2023-03-15T04:10:08;100532.59;;;-1.13;98.49
49835;BME280;35729;52.090;13.162;2023-03-15T04:12:39;100533.47;;;-1.13;99.43
49835;BME280;35729;52.090;13.162;2023-03-15T04:15:08;100538.66;;;-1.11;98.75
49835;BME280;35729;52.090;13.162;2023-03-15T04:17:36;100542.94;;;-1.12;98.97
49835;BME280;35729;52.090;13.162;2023-03-15T04:20:06;100546.38;;;-1.11;99.50
49835;BME280;35729;52.090;13.162;2023-03-15T04:22:39;100550.66;;;-1.12;98.25
49835;BME280;35729;52.090;13.162;2023-03-15T04:25:13;100561.81;;;-1.11;98.22
49835;BME280;35729;52.090;13.162;2023-03-15T04:27:42;100558.34;;;-1.13;97.80
49835;BME280;35729;52.090;13.162;2023-03-15T04:30:11;100562.63;;;-1.14;97.75
49835;BME280;35729;52.090;13.162;2023-03-15T04:32:39;100562.69;;;-1.12;98.06
49835;BME280;35729;52.090;13.162;2023-03-15T04:35:08;100565.25;;;-1.12;97.21
49835;BME280;35729;52.090;13.162;2023-03-15T04:37:39;100568.69;;;-1.12;99.15
49835;BME280;35729;52.090;13.162;2023-03-15T04:40:09;100567.84;;;-1.12;99.53
49835;BME280;35729;52.090;13.162;2023-03-15T04:42:45;100567.84;;;-1.12;99.68
49835;BME280;35729;52.090;13.162;2023-03-15T04:45:14;100570.34;;;-1.14;100.00
49835;BME280;35729;52.090;13.162;2023-03-15T04:47:42;100573.81;;;-1.13;99.61
49835;BME280;35729;52.090;13.162;2023-03-15T04:50:11;100571.97;;;-1.18;99.12
49835;BME280;35729;52.090;13.162;2023-03-15T04:52:43;100577.13;;;-1.18;99.43
49835;BME280;35729;52.090;13.162;2023-03-15T04:55:12;100596.00;;;-1.19;99.14
49835;BME280;35729;52.090;13.162;2023-03-15T04:57:40;100601.06;;;-1.22;98.04
49835;BME280;35729;52.090;13.162;2023-03-15T05:00:10;100608.75;;;-1.23;98.28
49835;BME280;35729;52.090;13.162;2023-03-15T05:02:39;100607.00;;;-1.24;98.25
49835;BME280;35729;52.090;13.162;2023-03-15T05:05:08;100611.31;;;-1.23;97.51
49835;BME280;35729;52.090;13.162;2023-03-15T05:07:38;100616.44;;;-1.25;97.17
49835;BME280;35729;52.090;13.162;2023-03-15T05:10:10;100614.72;;;-1.24;97.66
49835;BME280;35729;52.090;13.162;2023-03-15T05:12:39;100620.78;;;-1.24;96.87
49835;BME280;35729;52.090;13.162;2023-03-15T05:15:08;100622.44;;;-1.24;97.58
49835;BME280;35729;52.090;13.162;2023-03-15T05:17:37;100621.66;;;-1.22;97.72
49835;BME280;35729;52.090;13.162;2023-03-15T05:20:06;100625.16;;;-1.20;97.67
49835;BME280;35729;52.090;13.162;2023-03-15T05:22:37;100638.97;;;-1.16;98.56
49835;BME280;35729;52.090;13.162;2023-03-15T05:25:09;100629.56;;;-1.14;98.49
49835;BME280;35729;52.090;13.162;2023-03-15T05:27:38;100636.56;;;-1.10;98.70
49835;BME280;35729;52.090;13.162;2023-03-15T05:30:08;100640.91;;;-1.07;97.70
49835;BME280;35729;52.090;13.162;2023-03-15T05:32:37;100641.88;;;-1.02;98.33
49835;BME280;35729;52.090;13.162;2023-03-15T05:35:10;100656.56;;;-0.98;98.45
49835;BME280;35729;52.090;13.162;2023-03-15T05:37:39;100651.44;;;-0.96;98.22
49835;BME280;35729;52.090;13.162;2023-03-15T05:40:11;100648.16;;;-0.91;97.45
49835;BME280;35729;52.090;13.162;2023-03-15T05:42:40;100654.25;;;-0.87;98.02
49835;BME280;35729;52.090;13.162;2023-03-15T05:45:09;100660.31;;;-0.84;98.34
49835;BME280;35729;52.090;13.162;2023-03-15T05:47:37;100658.72;;;-0.78;97.62
49835;BME280;35729;52.090;13.162;2023-03-15T05:50:07;100667.41;;;-0.75;97.41
49835;BME280;35729;52.090;13.162;2023-03-15T05:52:35;100673.50;;;-0.71;96.97
49835;BME280;35729;52.090;13.162;2023-03-15T05:55:04;100671.84;;;-0.69;96.33
49835;BME280;35729;52.090;13.162;2023-03-15T05:57:35;100677.06;;;-0.64;96.52
49835;BME280;35729;52.090;13.162;2023-03-15T06:00:06;100675.44;;;-0.61;96.62
49835;BME280;35729;52.090;13.162;2023-03-15T06:02:37;100679.84;;;-0.57;96.53
49835;BME280;35729;52.090;13.162;2023-03-15T06:05:12;100681.56;;;-0.56;96.59
49835;BME280;35729;52.090;13.162;2023-03-15T06:07:41;100690.28;;;-0.51;96.28
49835;BME280;35729;52.090;13.162;2023-03-15T06:10:10;100683.50;;;-0.47;95.93
49835;BME280;35729;52.090;13.162;2023-03-15T06:12:41;100693.00;;;-0.44;95.84
49835;BME280;35729;52.090;13.162;2023-03-15T06:15:10;100692.19;;;-0.42;96.47
49835;BME280;35729;52.090;13.162;2023-03-15T06:17:39;100694.81;;;-0.40;95.28
49835;BME280;35729;52.090;13.162;2023-03-15T06:20:09;100703.44;;;-0.38;94.45
49835;BME280;35729;52.090;13.162;2023-03-15T06:22:37;100703.53;;;-0.35;95.71
49835;BME280;35729;52.090;13.162;2023-03-15T06:25:07;100709.53;;;-0.35;95.39
49835;BME280;35729;52.090;13.162;2023-03-15T06:27:36;100710.44;;;-0.34;95.50
49835;BME280;35729;52.090;13.162;2023-03-15T06:30:09;100720.75;;;-0.34;95.83
49835;BME280;35729;52.090;13.162;2023-03-15T06:32:59;100726.72;;;-0.35;96.02
49835;BME280;35729;52.090;13.162;2023-03-15T06:35:28;100720.75;;;-0.34;95.96
49835;BME280;35729;52.090;13.162;2023-03-15T06:37:56;100729.34;;;-0.34;95.98
49835;BME280;35729;52.090;13.162;2023-03-15T06:40:25;100744.84;;;-0.32;96.19
49835;BME280;35729;52.090;13.162;2023-03-15T06:42:54;100752.66;;;-0.29;96.06
49835;BME280;35729;52.090;13.162;2023-03-15T06:45:25;100758.69;;;-0.27;96.03
49835;BME280;35729;52.090;13.162;2023-03-15T06:47:56;100755.38;;;-0.23;95.25
49835;BME280;35729;52.090;13.162;2023-03-15T06:50:24;100764.94;;;-0.17;94.84
49835;BME280;35729;52.090;13.162;2023-03-15T06:52:53;100756.50;;;-0.11;95.10
49835;BME280;35729;52.090;13.162;2023-03-15T06:55:22;100764.34;;;-0.05;95.07
49835;BME280;35729;52.090;13.162;2023-03-15T06:57:50;100769.63;;;0.01;94.87
49835;BME280;35729;52.090;13.162;2023-03-15T07:00:19;100774.91;;;0.06;93.68
49835;BME280;35729;52.090;13.162;2023-03-15T07:02:50;100776.69;;;0.10;93.35
49835;BME280;35729;52.090;13.162;2023-03-15T07:05:19;100778.59;;;0.19;93.47
49835;BME280;35729;52.090;13.162;2023-03-15T07:07:47;100782.16;;;0.24;93.82
49835;BME280;35729;52.090;13.162;2023-03-15T07:10:16;100780.59;;;0.30;94.11
49835;BME280;35729;52.090;13.162;2023-03-15T07:12:44;100780.69;;;0.37;94.32
49835;BME280;35729;52.090;13.162;2023-03-15T07:15:19;100785.13;;;0.42;94.17
49835;BME280;35729;52.090;13.162;2023-03-15T07:17:56;100786.13;;;0.49;92.18
49835;BME280;35729;52.090;13.162;2023-03-15T07:20:25;100790.56;;;0.56;93.43
49835;BME280;35729;52.090;13.162;2023-03-15T07:22:53;100794.97;;;0.62;92.88
49835;BME280;35729;52.090;13.162;2023-03-15T07:25:22;100796.81;;;0.68;92.13
49835;BME280;35729;52.090;13.162;2023-03-15T07:27:51;100796.97;;;0.75;93.10
49835;BME280;35729;52.090;13.162;2023-03-15T07:30:20;100793.69;;;0.84;93.31
49835;BME280;35729;52.090;13.162;2023-03-15T07:32:48;100800.72;;;0.91;93.66
49835;BME280;35729;52.090;13.162;2023-03-15T07:35:19;100804.25;;;0.96;89.99
49835;BME280;35729;52.090;13.162;2023-03-15T07:37:48;100794.03;;;1.03;91.72
49835;BME280;35729;52.090;13.162;2023-03-15T07:40:17;100804.41;;;1.06;91.02
49835;BME280;35729;52.090;13.162;2023-03-15T07:42:45;100813.13;;;1.11;89.85
49835;BME280;35729;52.090;13.162;2023-03-15T07:45:14;100811.47;;;1.14;91.75
49835;BME280;35729;52.090;13.162;2023-03-15T07:47:42;100805.50;;;1.19;91.37
49835;BME280;35729;52.090;13.162;2023-03-15T07:50:11;100806.44;;;1.22;90.62
49835;BME280;35729;52.090;13.162;2023-03-15T07:52:43;100816.00;;;1.26;90.30
49835;BME280;35729;52.090;13.162;2023-03-15T07:55:12;100813.47;;;1.31;89.57
49835;BME280;35729;52.090;13.162;2023-03-15T07:57:40;100820.41;;;1.34;90.58
49835;BME280;35729;52.090;13.162;2023-03-15T08:00:10;100823.06;;;1.37;89.92
49835;BME280;35729;52.090;13.162;2023-03-15T08:02:39;100820.53;;;1.40;90.71
49835;BME280;35729;52.090;13.162;2023-03-15T08:05:08;100822.28;;;1.42;89.63
49835;BME280;35729;52.090;13.162;2023-03-15T08:07:36;100824.13;;;1.48;89.82
49835;BME280;35729;52.090;13.162;2023-03-15T08:10:09;100831.94;;;1.53;89.14
49835;BME280;35729;52.090;13.162;2023-03-15T08:12:38;100832.88;;;1.58;88.45
49835;BME280;35729;52.090;13.162;2023-03-15T08:15:08;100831.28;;;1.65;90.91
49835;BME280;35729;52.090;13.162;2023-03-15T08:17:38;100829.69;;;1.73;90.27
49835;BME280;35729;52.090;13.162;2023-03-15T08:20:09;100833.25;;;1.81;89.15
49835;BME280;35729;52.090;13.162;2023-03-15T08:22:39;100829.06;;;1.88;89.67
49835;BME280;35729;52.090;13.162;2023-03-15T08:25:13;100832.56;;;1.93;85.93
49835;BME280;35729;52.090;13.162;2023-03-15T08:27:42;100830.94;;;2.00;88.31
49835;BME280;35729;52.090;13.162;2023-03-15T08:30:12;100832.75;;;2.05;87.87
49835;BME280;35729;52.090;13.162;2023-03-15T08:32:43;100820.72;;;2.07;86.96
49835;BME280;35729;52.090;13.162;2023-03-15T08:35:13;100837.28;;;2.19;87.80
49835;BME280;35729;52.090;13.162;2023-03-15T08:37:42;100844.22;;;2.23;85.21
49835;BME280;35729;52.090;13.162;2023-03-15T08:40:16;100848.59;;;2.28;89.44
49835;BME280;35729;52.090;13.162;2023-03-15T08:42:45;100838.31;;;2.30;89.94
49835;BME280;35729;52.090;13.162;2023-03-15T08:45:13;100859.13;;;2.38;87.53
49835;BME280;35729;52.090;13.162;2023-03-15T08:47:42;100849.63;;;2.40;85.43
49835;BME280;35729;52.090;13.162;2023-03-15T08:50:12;100860.00;;;2.40;87.07
49835;BME280;35729;52.090;13.162;2023-03-15T08:52:41;100858.31;;;2.42;85.62
49835;BME280;35729;52.090;13.162;2023-03-15T08:55:10;100855.72;;;2.42;85.98
49835;BME280;35729;52.090;13.162;2023-03-15T08:57:42;100867.81;;;2.44;86.80
49835;BME280;35729;52.090;13.162;2023-03-15T09:00:12;100864.41;;;2.49;88.39
49835;BME280;35729;52.090;13.162;2023-03-15T09:02:45;100872.25;;;2.52;87.66
49835;BME280;35729;52.090;13.162;2023-03-15T09:05:16;100877.47;;;2.55;89.04
49835;BME280;35729;52.090;13.162;2023-03-15T09:07:46;100870.59;;;2.57;87.52
49835;BME280;35729;52.090;13.162;2023-03-15T09:10:15;100885.31;;;2.61;84.14
49835;BME280;35729;52.090;13.162;2023-03-15T09:12:48;100888.81;;;2.65;82.83
49835;BME280;35729;52.090;13.162;2023-03-15T09:15:18;100886.31;;;2.69;82.51
49835;BME280;35729;52.090;13.162;2023-03-15T09:17:48;100900.19;;;2.76;83.73
49835;BME280;35729;52.090;13.162;2023-03-15T09:20:17;100895.94;;;2.83;81.69
49835;BME280;35729;52.090;13.162;2023-03-15T09:22:51;100915.84;;;2.85;76.92
49835;BME280;35729;52.090;13.162;2023-03-15T09:25:21;100902.97;;;2.90;81.11
49835;BME280;35729;52.090;13.162;2023-03-15T09:27:52;100908.16;;;2.93;80.00
49835;BME280;35729;52.090;13.162;2023-03-15T09:30:21;100916.84;;;2.95;79.42
49835;BME280;35729;52.090;13.162;2023-03-15T09:32:50;100921.19;;;2.99;82.28
49835;BME280;35729;52.090;13.162;2023-03-15T09:35:19;100934.16;;;2.99;77.42
49835;BME280;35729;52.090;13.162;2023-03-15T09:37:48;100935.06;;;3.01;79.59
49835;BME280;35729;52.090;13.162;2023-03-15T09:40:20;100928.16;;;3.02;79.73
49835;BME280;35729;52.090;13.162;2023-03-15T09:43:00;100922.16;;;3.06;80.71
49835;BME280;35729;52.090;13.162;2023-03-15T09:45:39;100923.13;;;3.14;80.39
49835;BME280;35729;52.090;13.162;2023-03-15T09:48:12;100941.34;;;3.23;78.78
49835;BME280;35729;52.090;13.162;2023-03-15T09:50:45;100930.28;;;3.37;80.86
49835;BME280;35729;52.090;13.162;2023-03-15T09:53:17;100927.81;;;3.49;79.40
49835;BME280;35729;52.090;13.162;2023-03-15T09:55:50;100932.25;;;3.61;81.25
49835;BME280;35729;52.090;13.162;2023-03-15T09:58:23;100937.50;;;3.64;72.20
49835;BME280;35729;52.090;13.162;2023-03-15T10:00:59;100942.72;;;3.69;79.96
49835;BME280;35729;52.090;13.162;2023-03-15T10:03:32;100955.66;;;3.67;76.66
49835;BME280;35729;52.090;13.162;2023-03-15T10:06:09;100949.63;;;3.65;76.90
49835;BME280;35729;52.090;13.162;2023-03-15T10:08:40;100969.44;;;3.60;74.35
49835;BME280;35729;52.090;13.162;2023-03-15T10:11:13;100950.41;;;3.56;74.90
49835;BME280;35729;52.090;13.162;2023-03-15T10:13:56;100965.91;;;3.52;75.05
49835;BME280;35729;52.090;13.162;2023-03-15T10:16:38;100967.66;;;3.57;77.54
49835;BME280;35729;52.090;13.162;2023-03-15T10:19:16;100953.84;;;3.57;72.77
49835;BME280;35729;52.090;13.162;2023-03-15T10:21:51;100959.94;;;3.61;77.05
49835;BME280;35729;52.090;13.162;2023-03-15T10:24:27;100959.97;;;3.64;76.20
49835;BME280;35729;52.090;13.162;2023-03-15T10:27:14;100954.00;;;3.72;80.96
49835;BME280;35729;52.090;13.162;2023-03-15T10:29:46;100953.16;;;3.77;74.41
49835;BME280;35729;52.090;13.162;2023-03-15T10:32:17;100963.59;;;3.80;77.07
49835;BME280;35729;52.090;13.162;2023-03-15T10:34:48;100961.88;;;3.82;76.62
49835;BME280;35729;52.090;13.162;2023-03-15T10:37:18;100958.34;;;3.77;72.99
49835;BME280;35729;52.090;13.162;2023-03-15T10:39:52;100968.72;;;3.73;72.58
49835;BME280;35729;52.090;13.162;2023-03-15T10:42:26;100969.56;;;3.72;74.13
49835;BME280;35729;52.090;13.162;2023-03-15T10:44:58;100971.28;;;3.70;74.45
49835;BME280;35729;52.090;13.162;2023-03-15T10:47:41;100969.56;;;3.71;78.77
49835;BME280;35729;52.090;13.162;2023-03-15T10:50:16;100971.31;;;3.73;78.93
49835;BME280;35729;52.090;13.162;2023-03-15T10:52:45;100974.75;;;3.74;77.30
49835;BME280;35729;52.090;13.162;2023-03-15T10:55:15;100979.94;;;3.72;74.19
49835;BME280;35729;52.090;13.162;2023-03-15T10:57:52;100972.13;;;3.69;72.72
49835;BME280;35729;52.090;13.162;2023-03-15T11:00:26;100976.44;;;3.67;76.28
49835;BME280;35729;52.090;13.162;2023-03-15T11:03:04;100985.06;;;3.63;73.57
49835;BME280;35729;52.090;13.162;2023-03-15T11:05:40;100970.31;;;3.62;78.82
49835;BME280;35729;52.090;13.162;2023-03-15T11:08:12;100977.25;;;3.63;78.22
49835;BME280;35729;52.090;13.162;2023-03-15T11:10:42;100971.25;;;3.67;74.73
49835;BME280;35729;52.090;13.162;2023-03-15T11:13:13;100961.81;;;3.75;72.64
49835;BME280;35729;52.090;13.162;2023-03-15T11:15:59;100975.78;;;3.87;68.23
49835;BME280;35729;52.090;13.162;2023-03-15T11:18:34;100966.41;;;4.04;75.53
49835;BME280;35729;52.090;13.162;2023-03-15T11:21:06;100973.50;;;4.22;70.36
49835;BME280;35729;52.090;13.162;2023-03-15T11:23:37;100977.09;;;4.42;73.61
49835;BME280;35729;52.090;13.162;2023-03-15T11:26:08;100980.66;;;4.56;64.73
49835;BME280;35729;52.090;13.162;2023-03-15T11:28:46;100970.28;;;4.62;62.46
49835;BME280;35729;52.090;13.162;2023-03-15T11:31:18;100984.19;;;4.64;58.44
49835;BME280;35729;52.090;13.162;2023-03-15T11:33:52;100978.97;;;4.66;64.27
49835;BME280;35729;52.090;13.162;2023-03-15T11:36:24;100985.94;;;4.65;61.29
49835;BME280;35729;52.090;13.162;2023-03-15T11:38:54;100985.06;;;4.69;62.96
49835;BME280;35729;52.090;13.162;2023-03-15T11:41:28;100982.50;;;4.74;62.19
49835;BME280;35729;52.090;13.162;2023-03-15T11:44:07;100987.72;;;4.79;61.70
49835;BME280;35729;52.090;13.162;2023-03-15T11:46:45;100986.00;;;4.82;63.92
49835;BME280;35729;52.090;13.162;2023-03-15T11:49:20;100978.25;;;4.88;66.46
49835;BME280;35729;52.090;13.162;2023-03-15T11:51:54;100986.06;;;4.88;61.91
49835;BME280;35729;52.090;13.162;2023-03-15T11:54:25;100984.34;;;4.92;69.89
49835;BME280;35729;52.090;13.162;2023-03-15T11:57:00;100974.78;;;4.88;63.23
49835;BME280;35729;52.090;13.162;2023-03-15T11:59:32;100969.59;;;4.93;64.89
49835;BME280;35729;52.090;13.162;2023-03-15T12:02:46;100969.59;;;4.93;61.00
49835;BME280;35729;52.090;13.162;2023-03-15T12:05:43;100977.44;;;4.94;61.53
49835;BME280;35729;52.090;13.162;2023-03-15T12:08:18;100981.75;;;4.95;58.58
49835;BME280;35729;52.090;13.162;2023-03-15T12:10:49;100973.97;;;5.00;64.20
49835;BME280;35729;52.090;13.162;2023-03-15T12:13:22;100979.19;;;5.01;58.52
49835;BME280;35729;52.090;13.162;2023-03-15T12:15:51;101001.75;;;5.12;65.22
49835;BME280;35729;52.090;13.162;2023-03-15T12:18:38;100982.72;;;5.16;53.36
49835;BME280;35729;52.090;13.162;2023-03-15T12:21:15;100982.72;;;5.19;57.63
49835;BME280;35729;52.090;13.162;2023-03-15T12:23:47;100978.41;;;5.21;57.94
49835;BME280;35729;52.090;13.162;2023-03-15T12:26:25;101002.69;;;5.20;57.18
49835;BME280;35729;52.090;13.162;2023-03-15T12:29:16;100976.72;;;5.34;60.29
49835;BME280;35729;52.090;13.162;2023-03-15T12:31:53;100997.59;;;5.49;56.95
49835;BME280;35729;52.090;13.162;2023-03-15T12:34:35;100991.59;;;5.70;54.38
49835;BME280;35729;52.090;13.162;2023-03-15T12:37:07;100984.69;;;5.94;61.47
49835;BME280;35729;52.090;13.162;2023-03-15T12:39:43;100991.66;;;6.20;59.62
49835;BME280;35729;52.090;13.162;2023-03-15T12:48:19;100988.16;;;6.80;53.72
49835;BME280;35729;52.090;13.162;2023-03-15T12:50:54;100991.56;;;7.00;55.80
49835;BME280;35729;52.090;13.162;2023-03-15T12:53:45;101001.97;;;7.13;48.52
49835;BME280;35729;52.090;13.162;2023-03-15T12:56:32;100984.50;;;7.30;51.22
49835;BME280;35729;52.090;13.162;2023-03-15T12:59:09;100995.75;;;7.40;55.05
49835;BME280;35729;52.090;13.162;2023-03-15T13:01:40;100997.50;;;7.43;58.49
49835;BME280;35729;52.090;13.162;2023-03-15T13:04:10;101002.72;;;7.41;52.51
49835;BME280;35729;52.090;13.162;2023-03-15T13:07:06;101008.00;;;7.27;48.32
49835;BME280;35729;52.090;13.162;2023-03-15T13:09:55;101006.34;;;7.08;50.15
49835;BME280;35729;52.090;13.162;2023-03-15T13:12:31;101010.75;;;6.90;48.78
49835;BME280;35729;52.090;13.162;2023-03-15T13:15:08;101000.34;;;6.72;54.32